sensor_id;sensor_type;location;lat;lon;timestamp;temperature;humidity
4097;DHT22;2062;50.694;7.246;2023-11-22T00:00:46;6.50;68.80
4097;DHT22;2062;50.694;7.246;2023-11-22T00:03:12;6.40;68.70
4097;DHT22;2062;50.694;7.246;2023-11-22T00:05:39;6.40;68.80
4097;DHT22;2062;50.694;7.246;2023-11-22T00:08:06;6.40;68.90
4097;DHT22;2062;50.694;7.246;2023-11-22T00:10:33;6.40;69.00
4097;DHT22;2062;50.694;7.246;2023-11-22T00:13:00;6.40;69.00
4097;DHT22;2062;50.694;7.246;2023-11-22T00:15:28;6.30;69.10
4097;DHT22;2062;50.694;7.246;2023-11-22T00:17:55;6.30;69.10
4097;DHT22;2062;50.694;7.246;2023-11-22T00:20:23;6.30;69.20
4097;DHT22;2062;50.694;7.246;2023-11-22T00:22:50;6.30;69.20
4097;DHT22;2062;50.694;7.246;2023-11-22T00:25:16;6.30;69.40
4097;DHT22;2062;50.694;7.246;2023-11-22T00:27:44;6.30;69.40
4097;DHT22;2062;50.694;7.246;2023-11-22T00:30:12;6.20;69.20
4097;DHT22;2062;50.694;7.246;2023-11-22T00:32:41;6.20;69.30
4097;DHT22;2062;50.694;7.246;2023-11-22T00:35:08;6.20;69.40
4097;DHT22;2062;50.694;7.246;2023-11-22T00:37:35;6.20;69.40
4097;DHT22;2062;50.694;7.246;2023-11-22T00:40:02;6.20;69.40
4097;DHT22;2062;50.694;7.246;2023-11-22T00:42:36;6.20;69.60
4097;DHT22;2062;50.694;7.246;2023-11-22T00:45:03;6.20;69.70
4097;DHT22;2062;50.694;7.246;2023-11-22T00:47:31;6.20;69.70
4097;DHT22;2062;50.694;7.246;2023-11-22T00:49:59;6.10;69.80
4097;DHT22;2062;50.694;7.246;2023-11-22T00:52:26;6.10;69.80
4097;DHT22;2062;50.694;7.246;2023-11-22T00:54:53;6.10;69.90
4097;DHT22;2062;50.694;7.246;2023-11-22T00:57:20;6.10;69.80
4097;DHT22;2062;50.694;7.246;2023-11-22T00:59:46;6.10;69.90
4097;DHT22;2062;50.694;7.246;2023-11-22T01:02:13;6.20;70.00
4097;DHT22;2062;50.694;7.246;2023-11-22T01:04:40;6.10;70.00
4097;DHT22;2062;50.694;7.246;2023-11-22T01:07:08;6.20;70.10
4097;DHT22;2062;50.694;7.246;2023-11-22T01:09:35;6.20;70.10
4097;DHT22;2062;50.694;7.246;2023-11-22T01:12:02;6.10;70.10
4097;DHT22;2062;50.694;7.246;2023-11-22T01:14:29;6.20;70.20
4097;DHT22;2062;50.694;7.246;2023-11-22T01:16:56;6.10;70.30
4097;DHT22;2062;50.694;7.246;2023-11-22T01:19:23;6.20;70.30
4097;DHT22;2062;50.694;7.246;2023-11-22T01:21:51;6.20;70.30
4097;DHT22;2062;50.694;7.246;2023-11-22T01:24:19;6.20;70.30
4097;DHT22;2062;50.694;7.246;2023-11-22T01:26:46;6.10;71.20
4097;DHT22;2062;50.694;7.246;2023-11-22T01:29:13;6.20;70.40
4097;DHT22;2062;50.694;7.246;2023-11-22T01:31:39;6.20;70.40
4097;DHT22;2062;50.694;7.246;2023-11-22T01:34:07;6.30;70.50
4097;DHT22;2062;50.694;7.246;2023-11-22T01:36:34;6.20;70.50
4097;DHT22;2062;50.694;7.246;2023-11-22T01:39:01;6.20;70.40
4097;DHT22;2062;50.694;7.246;2023-11-22T01:41:30;6.20;70.50
4097;DHT22;2062;50.694;7.246;2023-11-22T01:43:57;6.10;70.50
4097;DHT22;2062;50.694;7.246;2023-11-22T01:46:24;6.20;70.50
4097;DHT22;2062;50.694;7.246;2023-11-22T01:48:53;6.20;70.50
4097;DHT22;2062;50.694;7.246;2023-11-22T01:51:20;6.20;70.50
4097;DHT22;2062;50.694;7.246;2023-11-22T01:53:47;6.20;70.50
4097;DHT22;2062;50.694;7.246;2023-11-22T01:56:15;6.20;70.50
4097;DHT22;2062;50.694;7.246;2023-11-22T01:58:44;6.20;70.60
4097;DHT22;2062;50.694;7.246;2023-11-22T02:01:12;6.20;70.50
4097;DHT22;2062;50.694;7.246;2023-11-22T02:03:39;6.20;70.70
4097;DHT22;2062;50.694;7.246;2023-11-22T02:06:06;6.20;70.60
4097;DHT22;2062;50.694;7.246;2023-11-22T02:08:35;6.20;70.60
4097;DHT22;2062;50.694;7.246;2023-11-22T02:11:02;6.20;70.70
4097;DHT22;2062;50.694;7.246;2023-11-22T02:13:29;6.20;70.70
4097;DHT22;2062;50.694;7.246;2023-11-22T02:15:58;6.20;70.70
4097;DHT22;2062;50.694;7.246;2023-11-22T02:18:26;6.20;70.70
4097;DHT22;2062;50.694;7.246;2023-11-22T02:20:53;6.20;70.80
4097;DHT22;2062;50.694;7.246;2023-11-22T02:23:21;6.20;70.80
4097;DHT22;2062;50.694;7.246;2023-11-22T02:25:48;6.20;70.80
4097;DHT22;2062;50.694;7.246;2023-11-22T02:28:15;6.20;70.80
4097;DHT22;2062;50.694;7.246;2023-11-22T02:30:42;6.20;70.80
4097;DHT22;2062;50.694;7.246;2023-11-22T02:33:08;6.20;70.80
4097;DHT22;2062;50.694;7.246;2023-11-22T02:35:35;6.20;70.90
4097;DHT22;2062;50.694;7.246;2023-11-22T02:38:02;6.20;70.90
4097;DHT22;2062;50.694;7.246;2023-11-22T02:40:32;6.20;70.90
4097;DHT22;2062;50.694;7.246;2023-11-22T02:42:59;6.10;70.90
4097;DHT22;2062;50.694;7.246;2023-11-22T02:45:30;6.20;70.90
4097;DHT22;2062;50.694;7.246;2023-11-22T02:47:58;6.20;70.90
4097;DHT22;2062;50.694;7.246;2023-11-22T02:50:27;6.20;70.90
4097;DHT22;2062;50.694;7.246;2023-11-22T02:52:54;6.20;71.00
4097;DHT22;2062;50.694;7.246;2023-11-22T02:55:20;6.20;70.90
4097;DHT22;2062;50.694;7.246;2023-11-22T02:57:49;6.10;70.90
4097;DHT22;2062;50.694;7.246;2023-11-22T03:00:16;6.20;71.00
4097;DHT22;2062;50.694;7.246;2023-11-22T03:02:44;6.20;71.10
4097;DHT22;2062;50.694;7.246;2023-11-22T03:05:12;6.10;71.00
4097;DHT22;2062;50.694;7.246;2023-11-22T03:07:39;6.10;71.10
4097;DHT22;2062;50.694;7.246;2023-11-22T03:10:07;6.10;71.10
4097;DHT22;2062;50.694;7.246;2023-11-22T03:12:34;6.10;71.00
4097;DHT22;2062;50.694;7.246;2023-11-22T03:15:03;6.10;71.00
4097;DHT22;2062;50.694;7.246;2023-11-22T03:17:30;6.10;71.00
4097;DHT22;2062;50.694;7.246;2023-11-22T03:19:57;6.10;71.00
4097;DHT22;2062;50.694;7.246;2023-11-22T03:22:24;6.10;71.00
4097;DHT22;2062;50.694;7.246;2023-11-22T03:24:50;6.10;71.00
4097;DHT22;2062;50.694;7.246;2023-11-22T03:27:18;6.10;71.10
4097;DHT22;2062;50.694;7.246;2023-11-22T03:29:47;6.10;71.00
4097;DHT22;2062;50.694;7.246;2023-11-22T03:32:15;6.00;71.00
4097;DHT22;2062;50.694;7.246;2023-11-22T03:34:42;6.10;70.90
4097;DHT22;2062;50.694;7.246;2023-11-22T03:37:09;6.10;70.90
4097;DHT22;2062;50.694;7.246;2023-11-22T03:39:36;6.10;70.90
4097;DHT22;2062;50.694;7.246;2023-11-22T03:42:03;6.00;70.70
4097;DHT22;2062;50.694;7.246;2023-11-22T03:44:30;6.00;70.80
4097;DHT22;2062;50.694;7.246;2023-11-22T03:46:57;6.00;70.80
4097;DHT22;2062;50.694;7.246;2023-11-22T03:49:25;6.00;70.80
4097;DHT22;2062;50.694;7.246;2023-11-22T03:51:52;6.00;70.80
4097;DHT22;2062;50.694;7.246;2023-11-22T03:54:19;6.00;70.90
4097;DHT22;2062;50.694;7.246;2023-11-22T03:56:46;6.00;71.00
4097;DHT22;2062;50.694;7.246;2023-11-22T03:59:12;6.00;71.00
4097;DHT22;2062;50.694;7.246;2023-11-22T04:01:39;6.00;70.90
4097;DHT22;2062;50.694;7.246;2023-11-22T04:04:06;6.00;70.90
4097;DHT22;2062;50.694;7.246;2023-11-22T04:06:35;6.00;70.90
4097;DHT22;2062;50.694;7.246;2023-11-22T04:09:02;6.00;70.90
4097;DHT22;2062;50.694;7.246;2023-11-22T04:11:29;6.00;70.90
4097;DHT22;2062;50.694;7.246;2023-11-22T04:13:56;6.00;70.90
4097;DHT22;2062;50.694;7.246;2023-11-22T04:16:23;6.00;70.90
4097;DHT22;2062;50.694;7.246;2023-11-22T04:18:50;6.00;70.80
4097;DHT22;2062;50.694;7.246;2023-11-22T04:21:16;6.00;70.80
4097;DHT22;2062;50.694;7.246;2023-11-22T04:23:45;6.00;70.80
4097;DHT22;2062;50.694;7.246;2023-11-22T04:26:13;6.00;70.70
4097;DHT22;2062;50.694;7.246;2023-11-22T04:28:41;6.00;70.70
4097;DHT22;2062;50.694;7.246;2023-11-22T04:31:07;6.00;70.60
4097;DHT22;2062;50.694;7.246;2023-11-22T04:33:35;6.00;70.60
4097;DHT22;2062;50.694;7.246;2023-11-22T04:36:01;6.00;70.60
4097;DHT22;2062;50.694;7.246;2023-11-22T04:38:28;6.00;70.60
4097;DHT22;2062;50.694;7.246;2023-11-22T04:40:56;5.90;70.40
4097;DHT22;2062;50.694;7.246;2023-11-22T04:43:23;5.90;70.30
4097;DHT22;2062;50.694;7.246;2023-11-22T04:45:50;5.90;70.30
4097;DHT22;2062;50.694;7.246;2023-11-22T04:48:17;5.80;70.10
4097;DHT22;2062;50.694;7.246;2023-11-22T04:50:43;5.80;69.90
4097;DHT22;2062;50.694;7.246;2023-11-22T04:53:11;5.80;70.80
4097;DHT22;2062;50.694;7.246;2023-11-22T04:55:38;5.70;69.80
4097;DHT22;2062;50.694;7.246;2023-11-22T04:58:06;5.70;69.80
4097;DHT22;2062;50.694;7.246;2023-11-22T05:00:33;5.70;69.70
4097;DHT22;2062;50.694;7.246;2023-11-22T05:03:00;5.70;69.60
4097;DHT22;2062;50.694;7.246;2023-11-22T05:05:26;5.70;69.60
4097;DHT22;2062;50.694;7.246;2023-11-22T05:07:54;5.60;69.30
4097;DHT22;2062;50.694;7.246;2023-11-22T05:10:20;5.50;69.20
4097;DHT22;2062;50.694;7.246;2023-11-22T05:12:47;5.50;69.10
4097;DHT22;2062;50.694;7.246;2023-11-22T05:15:15;5.40;69.00
4097;DHT22;2062;50.694;7.246;2023-11-22T05:17:41;5.40;69.00
4097;DHT22;2062;50.694;7.246;2023-11-22T05:20:09;5.30;68.80
4097;DHT22;2062;50.694;7.246;2023-11-22T05:22:36;5.30;68.80
4097;DHT22;2062;50.694;7.246;2023-11-22T05:25:03;5.20;68.30
4097;DHT22;2062;50.694;7.246;2023-11-22T05:27:30;5.20;68.20
4097;DHT22;2062;50.694;7.246;2023-11-22T05:29:58;5.10;67.80
4097;DHT22;2062;50.694;7.246;2023-11-22T05:32:27;5.10;67.50
4097;DHT22;2062;50.694;7.246;2023-11-22T05:34:54;5.00;67.20
4097;DHT22;2062;50.694;7.246;2023-11-22T05:37:20;4.90;67.10
4097;DHT22;2062;50.694;7.246;2023-11-22T05:39:47;4.90;67.30
4097;DHT22;2062;50.694;7.246;2023-11-22T05:42:14;4.90;67.30
4097;DHT22;2062;50.694;7.246;2023-11-22T05:44:41;4.80;67.30
4097;DHT22;2062;50.694;7.246;2023-11-22T05:47:08;4.80;67.20
4097;DHT22;2062;50.694;7.246;2023-11-22T05:49:36;4.80;67.10
4097;DHT22;2062;50.694;7.246;2023-11-22T05:52:03;4.70;67.30
4097;DHT22;2062;50.694;7.246;2023-11-22T05:54:31;4.70;67.30
4097;DHT22;2062;50.694;7.246;2023-11-22T05:56:58;4.70;67.30
4097;DHT22;2062;50.694;7.246;2023-11-22T05:59:24;4.60;66.80
4097;DHT22;2062;50.694;7.246;2023-11-22T06:01:51;4.50;67.00
4097;DHT22;2062;50.694;7.246;2023-11-22T06:04:18;4.50;67.10
4097;DHT22;2062;50.694;7.246;2023-11-22T06:06:46;4.40;67.10
4097;DHT22;2062;50.694;7.246;2023-11-22T06:09:13;4.40;67.20
4097;DHT22;2062;50.694;7.246;2023-11-22T06:11:40;4.40;67.10
4097;DHT22;2062;50.694;7.246;2023-11-22T06:14:07;4.30;67.10
4097;DHT22;2062;50.694;7.246;2023-11-22T06:16:34;4.30;67.00
4097;DHT22;2062;50.694;7.246;2023-11-22T06:19:01;4.20;66.80
4097;DHT22;2062;50.694;7.246;2023-11-22T06:21:27;4.20;66.80
4097;DHT22;2062;50.694;7.246;2023-11-22T06:23:56;4.20;67.60
4097;DHT22;2062;50.694;7.246;2023-11-22T06:26:23;4.10;67.00
4097;DHT22;2062;50.694;7.246;2023-11-22T06:28:50;4.00;66.90
4097;DHT22;2062;50.694;7.246;2023-11-22T06:31:17;4.00;66.90
4097;DHT22;2062;50.694;7.246;2023-11-22T06:33:44;4.00;66.70
4097;DHT22;2062;50.694;7.246;2023-11-22T06:36:11;3.90;66.80
4097;DHT22;2062;50.694;7.246;2023-11-22T06:38:39;3.90;66.80
4097;DHT22;2062;50.694;7.246;2023-11-22T06:41:08;3.80;66.60
4097;DHT22;2062;50.694;7.246;2023-11-22T06:43:34;3.80;66.60
4097;DHT22;2062;50.694;7.246;2023-11-22T06:46:01;3.80;66.70
4097;DHT22;2062;50.694;7.246;2023-11-22T06:48:31;3.80;66.50
4097;DHT22;2062;50.694;7.246;2023-11-22T06:50:58;3.70;66.40
4097;DHT22;2062;50.694;7.246;2023-11-22T06:53:25;3.70;66.50
4097;DHT22;2062;50.694;7.246;2023-11-22T06:55:52;3.70;66.50
4097;DHT22;2062;50.694;7.246;2023-11-22T06:58:20;3.60;66.60
4097;DHT22;2062;50.694;7.246;2023-11-22T07:00:47;3.60;66.40
4097;DHT22;2062;50.694;7.246;2023-11-22T07:03:14;3.60;66.40
4097;DHT22;2062;50.694;7.246;2023-11-22T07:05:41;3.60;66.40
4097;DHT22;2062;50.694;7.246;2023-11-22T07:08:08;3.50;66.30
4097;DHT22;2062;50.694;7.246;2023-11-22T07:10:36;3.40;66.20
4097;DHT22;2062;50.694;7.246;2023-11-22T07:13:03;3.40;66.20
4097;DHT22;2062;50.694;7.246;2023-11-22T07:15:31;3.40;66.30
4097;DHT22;2062;50.694;7.246;2023-11-22T07:17:58;3.40;66.40
4097;DHT22;2062;50.694;7.246;2023-11-22T07:20:24;3.30;66.50
4097;DHT22;2062;50.694;7.246;2023-11-22T07:22:52;3.30;66.30
4097;DHT22;2062;50.694;7.246;2023-11-22T07:25:23;3.30;66.30
4097;DHT22;2062;50.694;7.246;2023-11-22T07:27:50;3.30;66.30
4097;DHT22;2062;50.694;7.246;2023-11-22T07:30:18;3.20;66.20
4097;DHT22;2062;50.694;7.246;2023-11-22T07:32:49;3.20;66.30
4097;DHT22;2062;50.694;7.246;2023-11-22T07:35:17;3.20;66.30
4097;DHT22;2062;50.694;7.246;2023-11-22T07:37:45;3.20;66.20
4097;DHT22;2062;50.694;7.246;2023-11-22T07:40:13;3.10;66.30
4097;DHT22;2062;50.694;7.246;2023-11-22T07:42:40;3.10;66.50
4097;DHT22;2062;50.694;7.246;2023-11-22T07:45:08;3.10;66.40
4097;DHT22;2062;50.694;7.246;2023-11-22T07:47:37;3.10;66.40
4097;DHT22;2062;50.694;7.246;2023-11-22T07:50:07;3.10;66.30
4097;DHT22;2062;50.694;7.246;2023-11-22T07:52:34;3.10;66.60
4097;DHT22;2062;50.694;7.246;2023-11-22T07:55:02;3.00;66.50
4097;DHT22;2062;50.694;7.246;2023-11-22T07:57:29;3.00;66.50
4097;DHT22;2062;50.694;7.246;2023-11-22T07:59:55;3.00;66.50
4097;DHT22;2062;50.694;7.246;2023-11-22T08:02:22;3.00;66.60
4097;DHT22;2062;50.694;7.246;2023-11-22T08:04:49;3.00;66.70
4097;DHT22;2062;50.694;7.246;2023-11-22T08:07:18;3.00;66.80
4097;DHT22;2062;50.694;7.246;2023-11-22T08:09:47;2.90;67.90
4097;DHT22;2062;50.694;7.246;2023-11-22T08:12:14;2.90;67.00
4097;DHT22;2062;50.694;7.246;2023-11-22T08:14:41;2.90;67.90
4097;DHT22;2062;50.694;7.246;2023-11-22T08:17:09;3.00;67.10
4097;DHT22;2062;50.694;7.246;2023-11-22T08:19:37;3.00;67.20
4097;DHT22;2062;50.694;7.246;2023-11-22T08:22:05;3.10;67.40
4097;DHT22;2062;50.694;7.246;2023-11-22T08:24:33;3.20;67.40
4097;DHT22;2062;50.694;7.246;2023-11-22T08:27:00;3.30;67.70
4097;DHT22;2062;50.694;7.246;2023-11-22T08:29:26;3.50;68.10
4097;DHT22;2062;50.694;7.246;2023-11-22T08:31:53;3.60;68.20
4097;DHT22;2062;50.694;7.246;2023-11-22T08:34:20;3.70;68.50
4097;DHT22;2062;50.694;7.246;2023-11-22T08:36:47;3.90;68.60
4097;DHT22;2062;50.694;7.246;2023-11-22T08:39:14;4.00;68.70
4097;DHT22;2062;50.694;7.246;2023-11-22T08:41:42;4.10;68.80
4097;DHT22;2062;50.694;7.246;2023-11-22T08:44:08;4.30;68.90
4097;DHT22;2062;50.694;7.246;2023-11-22T08:46:35;4.50;69.10
4097;DHT22;2062;50.694;7.246;2023-11-22T08:49:02;4.70;69.00
4097;DHT22;2062;50.694;7.246;2023-11-22T08:51:29;4.80;69.10
4097;DHT22;2062;50.694;7.246;2023-11-22T08:53:56;5.00;69.20
4097;DHT22;2062;50.694;7.246;2023-11-22T08:56:22;5.20;69.40
4097;DHT22;2062;50.694;7.246;2023-11-22T08:58:51;5.50;69.20
4097;DHT22;2062;50.694;7.246;2023-11-22T09:01:20;5.70;69.20
4097;DHT22;2062;50.694;7.246;2023-11-22T09:03:47;5.90;69.30
4097;DHT22;2062;50.694;7.246;2023-11-22T09:06:15;6.10;69.30
4097;DHT22;2062;50.694;7.246;2023-11-22T09:08:42;6.40;69.30
4097;DHT22;2062;50.694;7.246;2023-11-22T09:11:11;6.60;69.20
4097;DHT22;2062;50.694;7.246;2023-11-22T09:13:38;7.10;69.00
4097;DHT22;2062;50.694;7.246;2023-11-22T09:16:07;7.10;69.30
4097;DHT22;2062;50.694;7.246;2023-11-22T09:18:34;7.30;68.00
4097;DHT22;2062;50.694;7.246;2023-11-22T09:21:01;7.60;68.10
4097;DHT22;2062;50.694;7.246;2023-11-22T09:23:28;7.70;67.70
4097;DHT22;2062;50.694;7.246;2023-11-22T09:25:55;7.90;67.10
4097;DHT22;2062;50.694;7.246;2023-11-22T09:28:22;8.10;66.60
4097;DHT22;2062;50.694;7.246;2023-11-22T09:30:48;8.30;65.90
4097;DHT22;2062;50.694;7.246;2023-11-22T09:33:17;8.50;65.40
4097;DHT22;2062;50.694;7.246;2023-11-22T09:35:46;8.70;65.10
4097;DHT22;2062;50.694;7.246;2023-11-22T09:38:13;8.70;63.70
4097;DHT22;2062;50.694;7.246;2023-11-22T09:40:42;8.80;63.70
4097;DHT22;2062;50.694;7.246;2023-11-22T09:43:09;8.90;61.70
4097;DHT22;2062;50.694;7.246;2023-11-22T09:45:36;9.00;61.80
4097;DHT22;2062;50.694;7.246;2023-11-22T09:48:07;9.00;61.70
4097;DHT22;2062;50.694;7.246;2023-11-22T09:50:43;9.10;60.80
4097;DHT22;2062;50.694;7.246;2023-11-22T09:53:19;9.10;59.80
4097;DHT22;2062;50.694;7.246;2023-11-22T09:55:48;9.10;59.80
4097;DHT22;2062;50.694;7.246;2023-11-22T09:58:16;9.10;59.40
4097;DHT22;2062;50.694;7.246;2023-11-22T10:00:45;9.10;60.00
4097;DHT22;2062;50.694;7.246;2023-11-22T10:03:13;9.20;59.00
4097;DHT22;2062;50.694;7.246;2023-11-22T10:05:42;9.20;58.50
4097;DHT22;2062;50.694;7.246;2023-11-22T10:08:09;9.20;58.30
4097;DHT22;2062;50.694;7.246;2023-11-22T10:10:37;9.20;58.70
4097;DHT22;2062;50.694;7.246;2023-11-22T10:13:05;9.20;58.60
4097;DHT22;2062;50.694;7.246;2023-11-22T10:15:32;9.20;58.50
4097;DHT22;2062;50.694;7.246;2023-11-22T10:17:59;9.30;58.10
4097;DHT22;2062;50.694;7.246;2023-11-22T10:20:36;9.30;57.20
4097;DHT22;2062;50.694;7.246;2023-11-22T10:23:08;9.20;57.00
4097;DHT22;2062;50.694;7.246;2023-11-22T10:25:36;9.20;56.80
4097;DHT22;2062;50.694;7.246;2023-11-22T10:28:02;9.20;56.70
4097;DHT22;2062;50.694;7.246;2023-11-22T10:30:29;9.20;57.10
4097;DHT22;2062;50.694;7.246;2023-11-22T10:32:57;9.20;56.60
4097;DHT22;2062;50.694;7.246;2023-11-22T10:35:24;9.30;56.10
4097;DHT22;2062;50.694;7.246;2023-11-22T10:37:52;9.30;57.20
4097;DHT22;2062;50.694;7.246;2023-11-22T10:40:20;9.30;57.90
4097;DHT22;2062;50.694;7.246;2023-11-22T10:42:50;9.40;57.60
4097;DHT22;2062;50.694;7.246;2023-11-22T10:45:18;9.40;56.90
4097;DHT22;2062;50.694;7.246;2023-11-22T10:47:47;9.50;56.70
4097;DHT22;2062;50.694;7.246;2023-11-22T10:50:16;9.50;56.40
4097;DHT22;2062;50.694;7.246;2023-11-22T10:52:42;9.50;56.60
4097;DHT22;2062;50.694;7.246;2023-11-22T10:55:12;9.60;56.40
4097;DHT22;2062;50.694;7.246;2023-11-22T10:57:45;9.70;56.50
4097;DHT22;2062;50.694;7.246;2023-11-22T11:00:15;9.70;56.70
4097;DHT22;2062;50.694;7.246;2023-11-22T11:02:45;9.70;56.20
4097;DHT22;2062;50.694;7.246;2023-11-22T11:05:16;9.80;55.70
4097;DHT22;2062;50.694;7.246;2023-11-22T11:07:49;9.80;55.20
4097;DHT22;2062;50.694;7.246;2023-11-22T11:10:20;9.80;54.70
4097;DHT22;2062;50.694;7.246;2023-11-22T11:12:49;9.80;54.60
4097;DHT22;2062;50.694;7.246;2023-11-22T11:15:16;9.80;54.20
4097;DHT22;2062;50.694;7.246;2023-11-22T11:17:45;9.80;54.60
4097;DHT22;2062;50.694;7.246;2023-11-22T11:20:16;9.90;54.00
4097;DHT22;2062;50.694;7.246;2023-11-22T11:22:44;9.90;54.10
4097;DHT22;2062;50.694;7.246;2023-11-22T11:25:14;9.90;53.60
4097;DHT22;2062;50.694;7.246;2023-11-22T11:27:41;9.90;53.70
4097;DHT22;2062;50.694;7.246;2023-11-22T11:33:17;9.90;53.00
4097;DHT22;2062;50.694;7.246;2023-11-22T11:35:46;9.90;53.00
4097;DHT22;2062;50.694;7.246;2023-11-22T11:38:14;9.80;52.70
4097;DHT22;2062;50.694;7.246;2023-11-22T11:40:43;9.90;52.60
4097;DHT22;2062;50.694;7.246;2023-11-22T11:43:11;9.80;51.90
4097;DHT22;2062;50.694;7.246;2023-11-22T11:45:40;9.80;51.10
4097;DHT22;2062;50.694;7.246;2023-11-22T11:48:12;9.80;51.40
4097;DHT22;2062;50.694;7.246;2023-11-22T11:50:41;9.80;51.50
4097;DHT22;2062;50.694;7.246;2023-11-22T11:53:07;9.80;50.90
4097;DHT22;2062;50.694;7.246;2023-11-22T11:55:35;9.70;51.10
4097;DHT22;2062;50.694;7.246;2023-11-22T11:58:06;9.70;51.60
4097;DHT22;2062;50.694;7.246;2023-11-22T12:00:35;9.70;51.30
4097;DHT22;2062;50.694;7.246;2023-11-22T12:03:06;9.70;51.40
4097;DHT22;2062;50.694;7.246;2023-11-22T12:05:33;9.70;51.40
4097;DHT22;2062;50.694;7.246;2023-11-22T12:08:01;9.80;51.60
4097;DHT22;2062;50.694;7.246;2023-11-22T12:10:28;9.80;51.30
4097;DHT22;2062;50.694;7.246;2023-11-22T12:12:55;9.80;51.20
4097;DHT22;2062;50.694;7.246;2023-11-22T12:15:22;9.80;50.70
4097;DHT22;2062;50.694;7.246;2023-11-22T12:17:49;9.80;51.40
4097;DHT22;2062;50.694;7.246;2023-11-22T12:20:17;9.80;51.30
4097;DHT22;2062;50.694;7.246;2023-11-22T12:22:47;9.90;51.60
4097;DHT22;2062;50.694;7.246;2023-11-22T12:25:15;9.90;51.80
4097;DHT22;2062;50.694;7.246;2023-11-22T12:27:42;10.00;51.40
4097;DHT22;2062;50.694;7.246;2023-11-22T12:30:26;10.00;51.10
4097;DHT22;2062;50.694;7.246;2023-11-22T12:32:54;10.00;50.90
4097;DHT22;2062;50.694;7.246;2023-11-22T12:35:22;10.10;50.40
4097;DHT22;2062;50.694;7.246;2023-11-22T12:37:48;10.00;49.80
4097;DHT22;2062;50.694;7.246;2023-11-22T12:40:20;10.00;49.80
4097;DHT22;2062;50.694;7.246;2023-11-22T12:42:48;10.00;49.90
4097;DHT22;2062;50.694;7.246;2023-11-22T12:45:21;10.00;49.20
4097;DHT22;2062;50.694;7.246;2023-11-22T12:47:49;9.90;48.70
4097;DHT22;2062;50.694;7.246;2023-11-22T12:50:32;9.90;48.70
4097;DHT22;2062;50.694;7.246;2023-11-22T12:53:08;9.80;48.80
4097;DHT22;2062;50.694;7.246;2023-11-22T12:55:38;9.80;49.00
4097;DHT22;2062;50.694;7.246;2023-11-22T12:58:05;9.80;49.40
4097;DHT22;2062;50.694;7.246;2023-11-22T13:00:33;9.80;49.70
4097;DHT22;2062;50.694;7.246;2023-11-22T13:03:00;9.80;49.80
4097;DHT22;2062;50.694;7.246;2023-11-22T13:05:26;9.80;49.00
4097;DHT22;2062;50.694;7.246;2023-11-22T13:07:53;9.80;49.00
4097;DHT22;2062;50.694;7.246;2023-11-22T13:10:20;9.80;49.30
4097;DHT22;2062;50.694;7.246;2023-11-22T13:12:52;9.80;49.80
4097;DHT22;2062;50.694;7.246;2023-11-22T13:15:20;9.80;49.60
4097;DHT22;2062;50.694;7.246;2023-11-22T13:17:49;9.80;49.50
4097;DHT22;2062;50.694;7.246;2023-11-22T13:20:16;9.80;49.30
4097;DHT22;2062;50.694;7.246;2023-11-22T13:22:45;9.80;49.00
4097;DHT22;2062;50.694;7.246;2023-11-22T13:25:12;9.90;49.70
4097;DHT22;2062;50.694;7.246;2023-11-22T13:27:39;9.80;49.90
4097;DHT22;2062;50.694;7.246;2023-11-22T13:30:09;9.80;50.40
4097;DHT22;2062;50.694;7.246;2023-11-22T13:32:36;9.80;50.70
4097;DHT22;2062;50.694;7.246;2023-11-22T13:35:05;9.90;50.60
4097;DHT22;2062;50.694;7.246;2023-11-22T13:37:38;9.90;51.00
4097;DHT22;2062;50.694;7.246;2023-11-22T13:40:08;9.90;50.90
4097;DHT22;2062;50.694;7.246;2023-11-22T13:42:38;9.90;50.50
4097;DHT22;2062;50.694;7.246;2023-11-22T13:45:05;9.90;50.30
4097;DHT22;2062;50.694;7.246;2023-11-22T13:47:33;9.90;50.30
4097;DHT22;2062;50.694;7.246;2023-11-22T13:50:00;9.90;49.80
4097;DHT22;2062;50.694;7.246;2023-11-22T13:52:29;9.90;49.70
4097;DHT22;2062;50.694;7.246;2023-11-22T13:54:56;9.90;49.90
4097;DHT22;2062;50.694;7.246;2023-11-22T13:57:23;9.90;50.10
4097;DHT22;2062;50.694;7.246;2023-11-22T13:59:49;9.90;50.10
4097;DHT22;2062;50.694;7.246;2023-11-22T14:02:16;9.90;50.10
4097;DHT22;2062;50.694;7.246;2023-11-22T14:04:44;9.80;49.70
4097;DHT22;2062;50.694;7.246;2023-11-22T14:07:11;9.90;49.80
4097;DHT22;2062;50.694;7.246;2023-11-22T14:09:38;9.80;50.10
4097;DHT22;2062;50.694;7.246;2023-11-22T14:12:05;9.80;50.20
4097;DHT22;2062;50.694;7.246;2023-11-22T14:14:32;9.90;50.20
4097;DHT22;2062;50.694;7.246;2023-11-22T14:16:59;9.80;50.00
4097;DHT22;2062;50.694;7.246;2023-11-22T14:19:25;9.80;49.60
4097;DHT22;2062;50.694;7.246;2023-11-22T14:21:54;9.90;48.30
4097;DHT22;2062;50.694;7.246;2023-11-22T14:24:20;9.80;47.70
4097;DHT22;2062;50.694;7.246;2023-11-22T14:26:47;9.80;47.50
4097;DHT22;2062;50.694;7.246;2023-11-22T14:29:15;9.80;47.20
4097;DHT22;2062;50.694;7.246;2023-11-22T14:31:42;9.70;47.30
4097;DHT22;2062;50.694;7.246;2023-11-22T14:34:10;9.70;47.30
4097;DHT22;2062;50.694;7.246;2023-11-22T14:36:37;9.60;46.70
4097;DHT22;2062;50.694;7.246;2023-11-22T14:39:06;9.50;46.70
4097;DHT22;2062;50.694;7.246;2023-11-22T14:41:37;9.50;46.60
4097;DHT22;2062;50.694;7.246;2023-11-22T14:44:04;9.40;46.00
4097;DHT22;2062;50.694;7.246;2023-11-22T14:46:32;9.40;46.80
4097;DHT22;2062;50.694;7.246;2023-11-22T14:49:00;9.30;47.50
4097;DHT22;2062;50.694;7.246;2023-11-22T14:51:28;9.20;47.60
4097;DHT22;2062;50.694;7.246;2023-11-22T14:53:55;9.10;48.10
4097;DHT22;2062;50.694;7.246;2023-11-22T14:56:23;9.00;48.40
4097;DHT22;2062;50.694;7.246;2023-11-22T14:58:50;9.00;48.20
4097;DHT22;2062;50.694;7.246;2023-11-22T15:01:19;8.90;48.20
4097;DHT22;2062;50.694;7.246;2023-11-22T15:03:46;8.80;48.40
4097;DHT22;2062;50.694;7.246;2023-11-22T15:06:14;8.70;48.50
4097;DHT22;2062;50.694;7.246;2023-11-22T15:08:41;8.70;48.60
4097;DHT22;2062;50.694;7.246;2023-11-22T15:11:08;8.50;48.50
4097;DHT22;2062;50.694;7.246;2023-11-22T15:13:36;8.50;48.50
4097;DHT22;2062;50.694;7.246;2023-11-22T15:16:03;8.40;48.50
4097;DHT22;2062;50.694;7.246;2023-11-22T15:18:30;8.30;48.50
4097;DHT22;2062;50.694;7.246;2023-11-22T15:20:57;8.20;47.90
4097;DHT22;2062;50.694;7.246;2023-11-22T15:23:24;8.10;48.20
4097;DHT22;2062;50.694;7.246;2023-11-22T15:25:51;8.10;48.50
4097;DHT22;2062;50.694;7.246;2023-11-22T15:28:18;8.10;48.20
4097;DHT22;2062;50.694;7.246;2023-11-22T15:30:49;7.90;48.40
4097;DHT22;2062;50.694;7.246;2023-11-22T15:33:21;7.80;48.40
4097;DHT22;2062;50.694;7.246;2023-11-22T15:35:48;7.70;48.40
4097;DHT22;2062;50.694;7.246;2023-11-22T15:38:15;7.60;48.50
4097;DHT22;2062;50.694;7.246;2023-11-22T15:40:42;7.60;48.70
4097;DHT22;2062;50.694;7.246;2023-11-22T15:43:08;7.50;49.20
4097;DHT22;2062;50.694;7.246;2023-11-22T15:45:35;7.40;49.30
4097;DHT22;2062;50.694;7.246;2023-11-22T15:48:04;7.40;49.50
4097;DHT22;2062;50.694;7.246;2023-11-22T15:50:31;7.30;50.10
4097;DHT22;2062;50.694;7.246;2023-11-22T15:52:58;7.30;50.70
4097;DHT22;2062;50.694;7.246;2023-11-22T15:55:27;7.20;50.20
4097;DHT22;2062;50.694;7.246;2023-11-22T15:57:54;7.10;50.10
4097;DHT22;2062;50.694;7.246;2023-11-22T16:00:21;7.00;50.30
4097;DHT22;2062;50.694;7.246;2023-11-22T16:02:48;7.00;50.40
4097;DHT22;2062;50.694;7.246;2023-11-22T16:05:16;7.00;49.70
4097;DHT22;2062;50.694;7.246;2023-11-22T16:07:43;6.90;49.90
4097;DHT22;2062;50.694;7.246;2023-11-22T16:10:10;6.80;49.90
4097;DHT22;2062;50.694;7.246;2023-11-22T16:12:37;6.80;49.80
4097;DHT22;2062;50.694;7.246;2023-11-22T16:15:04;6.70;49.70
4097;DHT22;2062;50.694;7.246;2023-11-22T16:17:31;6.70;50.20
4097;DHT22;2062;50.694;7.246;2023-11-22T16:20:01;6.70;50.60
4097;DHT22;2062;50.694;7.246;2023-11-22T16:22:34;6.60;50.60